Time;durP1;ratioP1;P1;durP2;ratioP2;P2;SDS_P1;SDS_P2;PMS_P1;PMS_P2;Temp;Humidity;BMP_temperature;BMP_pressure;BME280_temperature;BME280_humidity;BME280_pressure;Samples;Min_cycle;Max_cycle;Signal;HPM_P1;HPM_P2
2022/01/19 00:00:37;;;;;;;;;;;;;;;-144.99;100.00;52709.00;4933534;28;19934;-61
2022/01/19 00:03:04;;;;;;;;;;;;;;;-144.99;100.00;52676.38;4947554;29;19938;-61
2022/01/19 00:05:30;;;;;;;;;;;;;;;-144.99;100.00;52660.09;4949114;28;19966;-60
2022/01/19 00:07:57;;;;;;;;;;;;;;;-144.99;100.00;52660.09;4934464;29;19927;-63
2022/01/19 00:10:27;;;;;;;;;;;;;;;-144.99;100.00;52696.78;4929630;29;19927;-61
2022/01/19 00:12:54;;;;;;;;;;;;;;;-144.99;100.00;52664.16;4930440;29;19974;-61
2022/01/19 00:15:21;;;;;;;;;;;;;;;-144.99;100.00;52660.09;4929774;29;20325;-61
2022/01/19 00:17:48;;;;;;;;;;;;;;;-144.99;100.00;52668.22;4933670;29;19954;-58
2022/01/19 00:20:14;;;;;;;;;;;;;;;-144.99;100.00;52676.38;4923775;28;19950;-58
2022/01/19 00:22:41;;;;;;;;;;;;;;;-144.99;100.00;52684.53;4936139;28;20290;-59
2022/01/19 00:25:08;;;;;;;;;;;;;;;-144.99;100.00;52680.47;4937692;29;19992;-58
2022/01/19 00:27:35;;;;;;;;;;;;;;;-144.99;100.00;52686.59;4933540;28;19934;-59
2022/01/19 00:30:02;;;;;;;;;;;;;;;-144.99;100.00;52664.16;4947562;28;19963;-57
2022/01/19 00:32:29;;;;;;;;;;;;;;;-144.99;100.00;52668.22;4950095;28;19973;-57
2022/01/19 00:34:55;;;;;;;;;;;;;;;-144.99;100.00;52653.97;4950154;28;19962;-58
2022/01/19 00:37:22;;;;;;;;;;;;;;;-144.99;100.00;52664.16;4937866;29;19943;-58
2022/01/19 00:39:48;;;;;;;;;;;;;;;-144.99;100.00;52680.47;4930915;28;19946;-58
2022/01/19 00:42:14;;;;;;;;;;;;;;;-144.99;100.00;52656.00;4931750;29;19965;-58
2022/01/19 00:44:42;;;;;;;;;;;;;;;-144.99;100.00;52651.94;4931616;29;19949;-59
2022/01/19 00:47:08;;;;;;;;;;;;;;;-144.99;100.00;52680.47;4930423;29;19948;-59
2022/01/19 00:49:37;;;;;;;;;;;;;;;-144.99;100.00;52725.31;4935623;29;21251;-59
2022/01/19 00:52:03;;;;;;;;;;;;;;;-144.99;100.00;52700.84;4930685;28;19962;-60
2022/01/19 00:54:30;;;;;;;;;;;;;;;-144.99;100.00;52709.00;4930933;29;20375;-60
2022/01/19 00:56:56;;;;;;;;;;;;;;;-144.99;100.00;52658.03;4935902;29;20412;-59
2022/01/19 00:59:22;;;;;;;;;;;;;;;-144.99;100.00;52658.03;4934925;29;19948;-60
2022/01/19 01:01:50;;;;;;;;;;;;;;;-144.99;100.00;52737.53;4946001;28;19961;-59
2022/01/19 01:04:16;;;;;;;;;;;;;;;-144.99;100.00;52656.00;4950380;28;20013;-59
2022/01/19 01:06:43;;;;;;;;;;;;;;;-144.99;100.00;52676.38;4950429;28;19946;-60
2022/01/19 01:09:09;;;;;;;;;;;;;;;-144.99;100.00;52684.53;4944769;28;19927;-60
2022/01/19 01:11:46;;;;;;;;;;;;;;;-144.99;100.00;52668.22;4930520;28;19969;-60
2022/01/19 01:17:13;;;;;;;;;;;;;;;-144.99;100.00;52684.53;4932608;29;19938;-60
2022/01/19 01:19:39;;;;;;;;;;;;;;;-144.99;100.00;52700.84;4933856;29;19967;-60
2022/01/19 01:22:06;;;;;;;;;;;;;;;-144.99;100.00;52676.38;4948397;28;19958;-61
2022/01/19 01:24:32;;;;;;;;;;;;;;;-144.99;100.00;52660.09;4941819;28;19980;-61
2022/01/19 01:26:58;;;;;;;;;;;;;;;-144.99;100.00;52647.84;4936486;28;20293;-62
2022/01/19 01:29:25;;;;;;;;;;;;;;;-144.99;100.00;52670.28;4932177;29;20300;-60
2022/01/19 01:31:51;;;;;;;;;;;;;;;-144.99;100.00;52668.22;4939685;28;19934;-61
2022/01/19 01:34:19;;;;;;;;;;;;;;;-144.99;100.00;52672.31;4951219;28;20163;-60
2022/01/19 01:36:45;;;;;;;;;;;;;;;-144.99;100.00;52647.84;4944671;28;19933;-60
2022/01/19 01:39:11;;;;;;;;;;;;;;;-144.99;100.00;52713.09;4931491;29;20109;-60
2022/01/19 01:41:38;;;;;;;;;;;;;;;-144.99;100.00;52660.09;4938718;29;19927;-59
2022/01/19 01:44:04;;;;;;;;;;;;;;;-144.99;100.00;52660.09;4951377;28;19933;-61
2022/01/19 01:46:41;;;;;;;;;;;;;;;-144.99;100.00;52676.38;4951436;28;20272;-60
2022/01/19 01:49:13;;;;;;;;;;;;;;;-144.99;100.00;52704.94;4951312;28;19927;-61
2022/01/19 01:54:25;;;;;;;;;;;;;;;-144.99;100.00;52696.78;4944393;29;19985;-60
2022/01/19 01:56:53;;;;;;;;;;;;;;;-144.99;100.00;52627.47;4937457;28;19971;-59
2022/01/19 01:59:20;;;;;;;;;;;;;;;-144.99;100.00;52700.84;4931783;29;19949;-61
2022/01/19 02:01:46;;;;;;;;;;;;;;;-144.99;100.00;52664.16;4932009;29;19930;-60
2022/01/19 02:04:12;;;;;;;;;;;;;;;-144.99;100.00;52709.00;4950395;28;20352;-61
2022/01/19 02:06:57;;;;;;;;;;;;;;;-144.99;100.00;52688.63;4950981;28;19989;-60
2022/01/19 02:09:26;;;;;;;;;;;;;;;-144.99;100.00;52696.78;4950421;28;19966;-59
2022/01/19 02:23:02;;;;;;;;;;;;;;;-144.99;100.00;52637.66;4938262;29;19934;-59
2022/01/19 02:25:34;;;;;;;;;;;;;;;-144.99;100.00;52672.31;4943057;29;20300;-59
2022/01/19 02:36:51;;;;;;;;;;;;;;;-144.99;100.00;52651.94;5080423;28;20525;-60
2022/01/19 02:42:04;;;;;;;;;;;;;;;-144.99;100.00;52690.66;5084731;28;20049;-60
2022/01/19 02:46:33;;;;;;;;;;;;;;;-144.99;100.00;52668.22;5085031;28;19935;-60
2022/01/19 02:50:09;;;;;;;;;;;;;;;-144.99;100.00;52668.22;5083507;28;20318;-56
2022/01/19 02:52:35;;;;;;;;;;;;;;;-144.99;100.00;52694.72;5080759;28;19924;-57
2022/01/19 02:55:02;;;;;;;;;;;;;;;-144.99;100.00;52668.22;5065908;28;19928;-57
2022/01/19 02:57:28;;;;;;;;;;;;;;;-144.99;100.00;52672.31;5069194;28;19924;-57
2022/01/19 03:10:51;;;;;;;;;;;;;;;-144.99;100.00;52696.78;5086852;28;20070;-57
2022/01/19 03:13:18;;;;;;;;;;;;;;;-144.99;100.00;52694.72;5082690;28;19932;-57
2022/01/19 03:15:44;;;;;;;;;;;;;;;-144.99;100.00;52647.84;5066513;28;19932;-57
2022/01/19 03:18:11;;;;;;;;;;;;;;;-144.99;100.00;52704.94;5082309;28;19939;-57
2022/01/19 03:20:39;;;;;;;;;;;;;;;-144.99;100.00;52678.44;5086489;28;19931;-56
2022/01/19 03:23:14;;;;;;;;;;;;;;;-144.99;100.00;52709.00;5071558;28;20008;-57
2022/01/19 03:25:40;;;;;;;;;;;;;;;-144.99;100.00;52668.22;5066991;28;20439;-57
2022/01/19 03:28:07;;;;;;;;;;;;;;;-144.99;100.00;52676.38;5069263;28;19958;-57
2022/01/19 03:30:34;;;;;;;;;;;;;;;-144.99;100.00;52676.38;5086388;28;19965;-57
2022/01/19 03:33:00;;;;;;;;;;;;;;;-144.99;100.00;52670.28;5101222;28;19924;-58
2022/01/19 03:35:27;;;;;;;;;;;;;;;-144.99;100.00;52713.09;5089899;28;19939;-58
2022/01/19 03:37:54;;;;;;;;;;;;;;;-144.99;100.00;52651.94;5103533;28;19962;-58
2022/01/19 03:40:22;;;;;;;;;;;;;;;-144.99;100.00;52660.09;5106313;28;19924;-58
2022/01/19 03:42:48;;;;;;;;;;;;;;;-144.99;100.00;52700.84;5105859;28;19994;-57
2022/01/19 03:45:15;;;;;;;;;;;;;;;-144.99;100.00;52717.16;5081478;28;19925;-59
2022/01/19 03:47:44;;;;;;;;;;;;;;;-144.99;100.00;52672.31;5090895;28;20208;-57
2022/01/19 03:50:11;;;;;;;;;;;;;;;-144.99;100.00;52676.38;5088325;28;19924;-57
2022/01/19 03:52:38;;;;;;;;;;;;;;;-144.99;100.00;52684.53;5091281;28;19928;-57
2022/01/19 03:55:08;;;;;;;;;;;;;;;-144.99;100.00;52688.63;5089840;28;19928;-60
2022/01/19 03:57:34;;;;;;;;;;;;;;;-144.99;100.00;52676.38;5079256;28;19931;-60
2022/01/19 04:00:00;;;;;;;;;;;;;;;-144.99;100.00;52706.97;5073404;28;19932;-60
2022/01/19 04:02:27;;;;;;;;;;;;;;;-144.99;100.00;52698.81;5092302;28;19947;-60
2022/01/19 04:04:58;;;;;;;;;;;;;;;-144.99;100.00;52684.53;5092114;28;19946;-60
2022/01/19 04:07:25;;;;;;;;;;;;;;;-144.99;100.00;52674.34;5078399;28;19931;-59
2022/01/19 04:09:51;;;;;;;;;;;;;;;-144.99;100.00;52717.16;5085990;28;19953;-59
2022/01/19 04:12:30;;;;;;;;;;;;;;;-144.99;100.00;52668.22;5092379;28;19924;-60
2022/01/19 04:14:56;;;;;;;;;;;;;;;-144.99;100.00;52656.00;5092176;28;19974;-59
2022/01/19 04:17:23;;;;;;;;;;;;;;;-144.99;100.00;52643.78;5082483;28;19951;-57
2022/01/19 04:19:50;;;;;;;;;;;;;;;-144.99;100.00;52668.22;5074807;28;19924;-58
2022/01/19 04:22:18;;;;;;;;;;;;;;;-144.99;100.00;52658.03;5083876;28;20350;-58
2022/01/19 04:24:44;;;;;;;;;;;;;;;-144.99;100.00;52700.84;5069645;28;20168;-58
2022/01/19 04:30:01;;;;;;;;;;;;;;;-144.99;100.00;52688.63;5076256;28;20308;-58
2022/01/19 04:32:36;;;;;;;;;;;;;;;-144.99;100.00;52700.84;5092413;28;19931;-58
2022/01/19 04:35:06;;;;;;;;;;;;;;;-144.99;100.00;52664.16;5091145;28;20109;-58
2022/01/19 04:49:06;;;;;;;;;;;;;;;-144.99;100.00;52700.84;5021290;28;19932;-59
2022/01/19 04:54:44;;;;;;;;;;;;;;;-144.99;100.00;52737.53;5091010;28;19946;-58
2022/01/19 05:03:01;;;;;;;;;;;;;;;-144.99;100.00;52696.78;5066211;28;19930;-55
2022/01/19 05:05:32;;;;;;;;;;;;;;;-144.99;100.00;52684.53;5091144;28;19924;-58
2022/01/19 05:08:04;;;;;;;;;;;;;;;-144.99;100.00;52672.31;5091772;28;20064;-59
2022/01/19 05:13:26;;;;;;;;;;;;;;;-144.99;100.00;52668.22;5091967;28;19931;-58
2022/01/19 05:15:53;;;;;;;;;;;;;;;-144.99;100.00;52664.16;5092145;28;19934;-58
2022/01/19 05:18:21;;;;;;;;;;;;;;;-144.99;100.00;52684.53;5092063;28;19931;-60
2022/01/19 05:20:48;;;;;;;;;;;;;;;-144.99;100.00;52709.00;5070229;28;20086;-59
2022/01/19 05:23:16;;;;;;;;;;;;;;;-144.99;100.00;52688.63;5074421;28;19932;-61
2022/01/19 05:25:43;;;;;;;;;;;;;;;-144.99;100.00;52698.81;5075082;28;19928;-61
2022/01/19 05:28:09;;;;;;;;;;;;;;;-144.99;100.00;52709.00;5084631;28;19924;-60
2022/01/19 05:30:36;;;;;;;;;;;;;;;-144.99;100.00;52676.38;5084966;28;19932;-61
2022/01/19 05:33:02;;;;;;;;;;;;;;;-144.99;100.00;52694.72;5090806;28;19928;-60
2022/01/19 05:35:30;;;;;;;;;;;;;;;-144.99;100.00;52713.09;5086391;28;20346;-62
2022/01/19 05:37:56;;;;;;;;;;;;;;;-144.99;100.00;52686.59;5087826;28;20010;-61
2022/01/19 05:40:22;;;;;;;;;;;;;;;-144.99;100.00;52653.97;5078323;28;19961;-61
2022/01/19 05:42:49;;;;;;;;;;;;;;;-144.99;100.00;52684.53;5088325;28;19968;-62
2022/01/19 05:45:16;;;;;;;;;;;;;;;-144.99;100.00;52668.22;5091047;28;20012;-62
2022/01/19 05:47:43;;;;;;;;;;;;;;;-144.99;100.00;52684.53;5090683;28;19928;-61
2022/01/19 05:50:10;;;;;;;;;;;;;;;-144.99;100.00;52651.94;5084034;28;20038;-62
2022/01/19 05:52:37;;;;;;;;;;;;;;;-144.99;100.00;52676.38;5088284;28;19928;-66
2022/01/19 05:55:04;;;;;;;;;;;;;;;-144.99;100.00;52684.53;5088276;28;19924;-65
2022/01/19 05:57:32;;;;;;;;;;;;;;;-144.99;100.00;52725.31;5076786;28;19928;-66
2022/01/19 05:59:58;;;;;;;;;;;;;;;-144.99;100.00;52668.22;5071573;28;20402;-66
2022/01/19 06:02:24;;;;;;;;;;;;;;;-144.99;100.00;52725.31;5078172;28;19928;-66
2022/01/19 06:04:51;;;;;;;;;;;;;;;-144.99;100.00;52684.53;5068039;22;19984;-64
2022/01/19 06:07:17;;;;;;;;;;;;;;;-144.99;100.00;52709.00;4339649;28;10000816;-65
2022/01/19 06:10:01;;;;;;;;;;;;;;;-144.99;100.00;52676.38;5017559;28;20060;-64
2022/01/19 06:12:27;;;;;;;;;;;;;;;-144.99;100.00;52723.28;5025123;28;19955;-65
2022/01/19 06:14:54;;;;;;;;;;;;;;;-144.99;100.00;52684.53;5025256;28;19925;-65
2022/01/19 06:17:20;;;;;;;;;;;;;;;-144.99;100.00;52694.72;5025845;28;20591;-64
2022/01/19 06:19:48;;;;;;;;;;;;;;;-144.99;100.00;52729.38;5022825;28;19925;-65
2022/01/19 06:22:14;;;;;;;;;;;;;;;-144.99;100.00;52676.38;5009272;28;20069;-65
2022/01/19 06:24:41;;;;;;;;;;;;;;;-144.99;100.00;52684.53;5018738;28;19936;-65
2022/01/19 06:27:08;;;;;;;;;;;;;;;-144.99;100.00;52690.66;5012662;28;20253;-65
2022/01/19 06:29:34;;;;;;;;;;;;;;;-144.99;100.00;52682.50;5004496;28;19933;-65
2022/01/19 06:32:01;;;;;;;;;;;;;;;-144.99;100.00;52668.22;5005138;28;19983;-65
2022/01/19 06:34:27;;;;;;;;;;;;;;;-144.99;100.00;52672.31;5005625;28;20305;-65
2022/01/19 06:36:54;;;;;;;;;;;;;;;-144.99;100.00;52643.78;5015880;28;19926;-65
2022/01/19 06:39:20;;;;;;;;;;;;;;;-144.99;100.00;52660.09;5004678;28;19926;-65
2022/01/19 06:41:47;;;;;;;;;;;;;;;-144.99;100.00;52709.00;5005267;28;19932;-65
2022/01/19 06:44:15;;;;;;;;;;;;;;;-144.99;100.00;52682.50;5006366;28;19929;-65
2022/01/19 06:46:41;;;;;;;;;;;;;;;-144.99;100.00;52696.78;5025138;28;19933;-65
2022/01/19 06:49:08;;;;;;;;;;;;;;;-144.99;100.00;52615.25;5024685;28;19933;-65
2022/01/19 06:51:34;;;;;;;;;;;;;;;-144.99;100.00;52662.13;5011202;28;20580;-65
2022/01/19 06:54:01;;;;;;;;;;;;;;;-144.99;100.00;52676.38;5004090;28;19974;-66
2022/01/19 06:56:27;;;;;;;;;;;;;;;-144.99;100.00;52704.94;5007919;28;19925;-65
2022/01/19 06:58:53;;;;;;;;;;;;;;;-144.99;100.00;52713.09;5005553;28;19979;-65
2022/01/19 07:01:21;;;;;;;;;;;;;;;-144.99;100.00;52656.00;5004658;28;20330;-65
2022/01/19 07:03:47;;;;;;;;;;;;;;;-144.99;100.00;52664.16;5004288;28;19938;-66
2022/01/19 07:06:15;;;;;;;;;;;;;;;-144.99;100.00;52704.94;5015515;28;19936;-65
2022/01/19 07:08:41;;;;;;;;;;;;;;;-144.99;100.00;52674.34;4999770;28;19940;-65
2022/01/19 07:11:08;;;;;;;;;;;;;;;-144.99;100.00;52676.38;5005038;28;19952;-65
2022/01/19 07:13:34;;;;;;;;;;;;;;;-144.99;100.00;52668.22;5004866;28;19925;-65
2022/01/19 07:16:00;;;;;;;;;;;;;;;-144.99;100.00;52698.81;5005997;28;19932;-66
2022/01/19 07:18:28;;;;;;;;;;;;;;;-144.99;100.00;52688.63;5022998;28;20345;-65
2022/01/19 07:20:55;;;;;;;;;;;;;;;-144.99;100.00;52688.63;5027904;28;20143;-66
2022/01/19 07:23:21;;;;;;;;;;;;;;;-144.99;100.00;52635.63;5020595;28;20355;-66
2022/01/19 07:25:47;;;;;;;;;;;;;;;-144.99;100.00;52660.09;5009117;28;19974;-65
2022/01/19 07:28:14;;;;;;;;;;;;;;;-144.99;100.00;52676.38;5011505;28;19972;-66
2022/01/19 07:30:40;;;;;;;;;;;;;;;-144.99;100.00;52664.16;5019449;28;19936;-66
2022/01/19 07:33:06;;;;;;;;;;;;;;;-144.99;100.00;52635.63;5022768;28;19929;-66
2022/01/19 07:35:34;;;;;;;;;;;;;;;-144.99;100.00;52680.47;5012298;28;19929;-67
2022/01/19 07:38:01;;;;;;;;;;;;;;;-144.99;100.00;52713.09;5012833;28;19937;-65
2022/01/19 07:40:27;;;;;;;;;;;;;;;-144.99;100.00;52696.78;5008895;28;19948;-65
2022/01/19 07:42:54;;;;;;;;;;;;;;;-144.99;100.00;52688.63;5026498;28;19926;-65
2022/01/19 07:45:21;;;;;;;;;;;;;;;-144.99;100.00;52684.53;5023420;28;19930;-65
2022/01/19 07:47:47;;;;;;;;;;;;;;;-144.99;100.00;52696.78;5022153;28;19933;-65
2022/01/19 07:50:13;;;;;;;;;;;;;;;-144.99;100.00;52660.09;5007235;28;20199;-67
2022/01/19 07:52:41;;;;;;;;;;;;;;;-144.99;100.00;52676.38;5008408;28;19967;-65
2022/01/19 07:55:08;;;;;;;;;;;;;;;-144.99;100.00;52676.38;5006409;28;19936;-65
2022/01/19 07:57:34;;;;;;;;;;;;;;;-144.99;100.00;52651.94;5011126;28;19936;-65
2022/01/19 08:00:00;;;;;;;;;;;;;;;-144.99;100.00;52686.59;5013677;28;19959;-65
2022/01/19 08:02:32;;;;;;;;;;;;;;;-144.99;100.00;52668.22;5007565;28;19930;-66
2022/01/19 08:04:59;;;;;;;;;;;;;;;-144.99;100.00;52664.16;5007998;28;19968;-65
2022/01/19 08:07:25;;;;;;;;;;;;;;;-144.99;100.00;52709.00;5013906;28;19993;-66
2022/01/19 08:09:53;;;;;;;;;;;;;;;-144.99;100.00;52692.69;5012358;28;19978;-66
2022/01/19 08:12:19;;;;;;;;;;;;;;;-144.99;100.00;52684.53;5013180;28;19976;-66
2022/01/19 08:14:46;;;;;;;;;;;;;;;-144.99;100.00;52696.78;5007788;28;19981;-65
2022/01/19 08:17:12;;;;;;;;;;;;;;;-144.99;100.00;52676.38;5008113;28;20048;-65
2022/01/19 08:19:39;;;;;;;;;;;;;;;-144.99;100.00;52641.72;5018554;28;19954;-65
2022/01/19 08:22:05;;;;;;;;;;;;;;;-144.99;100.00;52696.78;5008127;28;19968;-65
2022/01/19 08:24:31;;;;;;;;;;;;;;;-144.99;100.00;52668.22;5004828;28;19953;-65
2022/01/19 08:26:59;;;;;;;;;;;;;;;-144.99;100.00;52674.34;5012711;28;19949;-65
2022/01/19 08:29:25;;;;;;;;;;;;;;;-144.99;100.00;52700.84;5013503;28;19976;-65
2022/01/19 08:31:52;;;;;;;;;;;;;;;-144.99;100.00;52688.63;5015115;28;20312;-65
2022/01/19 08:34:18;;;;;;;;;;;;;;;-144.99;100.00;52688.63;5028092;28;20025;-65
2022/01/19 08:36:45;;;;;;;;;;;;;;;-144.99;100.00;52682.50;5017975;28;19980;-65
2022/01/19 08:39:11;;;;;;;;;;;;;;;-144.99;100.00;52684.53;5014492;28;19956;-65
2022/01/19 08:41:37;;;;;;;;;;;;;;;-144.99;100.00;52684.53;5007275;28;20233;-65
2022/01/19 08:44:06;;;;;;;;;;;;;;;-144.99;100.00;52700.84;5013546;28;20663;-66
2022/01/19 08:46:32;;;;;;;;;;;;;;;-144.99;100.00;52715.13;5007357;28;19956;-66
2022/01/19 08:48:58;;;;;;;;;;;;;;;-144.99;100.00;52674.34;5012082;28;19955;-65
2022/01/19 08:51:26;;;;;;;;;;;;;;;-144.99;100.00;52684.53;5010518;28;20398;-66
2022/01/19 08:53:52;;;;;;;;;;;;;;;-144.99;100.00;52649.88;5004898;28;20529;-66
2022/01/19 08:56:19;;;;;;;;;;;;;;;-144.99;100.00;52678.44;5005173;28;19966;-66
2022/01/19 08:58:45;;;;;;;;;;;;;;;-144.99;100.00;52653.97;5008234;28;20425;-66
2022/01/19 09:01:13;;;;;;;;;;;;;;;-144.99;100.00;52635.63;5014913;28;19949;-66
2022/01/19 09:03:39;;;;;;;;;;;;;;;-144.99;100.00;52680.47;5009851;28;20141;-66
2022/01/19 09:06:06;;;;;;;;;;;;;;;-144.99;100.00;52619.31;5007022;28;19980;-66
2022/01/19 09:08:34;;;;;;;;;;;;;;;-144.99;100.00;52651.94;5012318;28;20298;-65
2022/01/19 09:11:01;;;;;;;;;;;;;;;-144.99;100.00;52688.63;5011304;28;19949;-66
2022/01/19 09:13:27;;;;;;;;;;;;;;;-144.99;100.00;52700.84;5005999;28;19929;-66
2022/01/19 09:15:54;;;;;;;;;;;;;;;-144.99;100.00;52676.38;5013731;28;20313;-66
2022/01/19 09:18:22;;;;;;;;;;;;;;;-144.99;100.00;52692.69;5016815;28;19967;-65
2022/01/19 09:20:48;;;;;;;;;;;;;;;-144.99;100.00;52676.38;5006825;28;19947;-64
2022/01/19 09:23:14;;;;;;;;;;;;;;;-144.99;100.00;52680.47;5008185;28;20219;-65
2022/01/19 09:25:41;;;;;;;;;;;;;;;-144.99;100.00;52651.94;5006116;28;19953;-65
2022/01/19 09:28:08;;;;;;;;;;;;;;;-144.99;100.00;52660.09;5021066;28;19943;-65
2022/01/19 09:30:35;;;;;;;;;;;;;;;-144.99;100.00;52662.13;5014419;28;20405;-65
2022/01/19 09:33:07;;;;;;;;;;;;;;;-144.99;100.00;52684.53;5021037;28;20437;-65
2022/01/19 09:35:52;;;;;;;;;;;;;;;-144.99;100.00;52668.22;5019138;28;19988;-65
2022/01/19 09:38:18;;;;;;;;;;;;;;;-144.99;100.00;52668.22;5024157;28;19966;-65
2022/01/19 09:40:45;;;;;;;;;;;;;;;-144.99;100.00;52696.78;5013793;28;19942;-65
2022/01/19 09:43:11;;;;;;;;;;;;;;;-144.99;100.00;52674.34;5023884;28;19968;-65
2022/01/19 09:45:38;;;;;;;;;;;;;;;-144.99;100.00;52700.84;5015636;28;19933;-65
2022/01/19 09:48:05;;;;;;;;;;;;;;;-144.99;100.00;52692.69;5025230;28;19995;-65
2022/01/19 09:50:32;;;;;;;;;;;;;;;-144.99;100.00;52656.00;5023537;28;19955;-65
2022/01/19 09:53:02;;;;;;;;;;;;;;;-144.99;100.00;52668.22;5014899;28;20101;-65
2022/01/19 09:55:29;;;;;;;;;;;;;;;-144.99;99.66;52656.00;5006895;28;19986;-65
2022/01/19 09:57:55;;;;;;;;;;;;;;;-144.99;100.00;52680.47;5009510;28;20400;-65
2022/01/19 10:00:22;;;;;;;;;;;;;;;-144.99;100.00;52643.78;5009729;28;19952;-66
2022/01/19 10:03:03;;;;;;;;;;;;;;;-144.99;100.00;52645.81;5006110;28;20317;-65
2022/01/19 10:05:29;;;;;;;;;;;;;;;-144.99;100.00;52713.09;5004642;28;19956;-65
2022/01/19 10:08:00;;;;;;;;;;;;;;;-144.99;100.00;52711.03;5002957;28;19972;-65
2022/01/19 10:10:28;;;;;;;;;;;;;;;-144.99;100.00;52676.38;4999017;28;19998;-65
2022/01/19 10:18:33;;;;;;;;;;;;;;;-144.99;99.98;52672.31;4981389;28;19962;-65
2022/01/19 10:21:06;;;;;;;;;;;;;;;-144.99;100.00;52656.00;5006081;28;19980;-65
2022/01/19 10:23:36;;;;;;;;;;;;;;;-144.99;100.00;52647.84;5009526;28;20024;-65
2022/01/19 10:26:04;;;;;;;;;;;;;;;-144.99;100.00;52688.63;5017686;28;19948;-65
2022/01/19 10:28:30;;;;;;;;;;;;;;;-144.99;99.11;52668.22;5005213;28;20362;-65
2022/01/19 10:31:00;;;;;;;;;;;;;;;-144.99;99.12;52674.34;5005758;28;20483;-65
2022/01/19 10:33:26;;;;;;;;;;;;;;;-144.99;99.30;52684.53;5013789;28;19948;-67
2022/01/19 10:35:53;;;;;;;;;;;;;;;-144.99;99.19;52631.53;5021964;28;19963;-65
2022/01/19 10:38:23;;;;;;;;;;;;;;;-144.99;99.81;52686.59;5007801;28;20238;-65
2022/01/19 10:41:08;;;;;;;;;;;;;;;-144.99;99.12;52668.22;5005741;28;20393;-65
2022/01/19 10:43:36;;;;;;;;;;;;;;;-144.99;98.62;52688.63;5012632;28;19933;-65
2022/01/19 10:46:23;;;;;;;;;;;;;;;-144.99;97.62;52676.38;5026406;28;19925;-65
2022/01/19 10:48:49;;;;;;;;;;;;;;;-144.99;98.27;52647.84;5009595;28;19972;-65
2022/01/19 10:51:17;;;;;;;;;;;;;;;-144.99;98.51;52670.28;5011981;28;19951;-65
2022/01/19 10:53:45;;;;;;;;;;;;;;;-144.99;97.52;52635.63;5014506;28;19963;-66
2022/01/19 10:56:26;;;;;;;;;;;;;;;-144.99;97.06;52678.44;5019333;28;19940;-64
2022/01/19 10:58:53;;;;;;;;;;;;;;;-144.99;96.63;52684.53;5021181;28;19956;-65
2022/01/19 11:01:32;;;;;;;;;;;;;;;-144.99;96.45;52676.38;5028784;28;19964;-66
2022/01/19 11:04:13;;;;;;;;;;;;;;;-144.99;95.94;52639.69;5018804;28;19955;-65
2022/01/19 11:06:40;;;;;;;;;;;;;;;-144.99;97.17;52668.22;5021213;28;20438;-65
2022/01/19 11:09:13;;;;;;;;;;;;;;;-144.99;97.28;52664.16;5012348;28;20004;-66
2022/01/19 11:11:43;;;;;;;;;;;;;;;-144.99;98.14;52690.66;5015486;28;19936;-65
2022/01/19 11:14:09;;;;;;;;;;;;;;;-144.99;98.08;52664.16;5027559;28;19970;-66
2022/01/19 11:16:35;;;;;;;;;;;;;;;-144.99;97.67;52627.47;5034616;28;19958;-66
2022/01/19 11:19:02;;;;;;;;;;;;;;;-144.99;97.82;52656.00;5034635;28;19925;-66
2022/01/19 11:21:31;;;;;;;;;;;;;;;-144.99;96.87;52709.00;5018923;28;19933;-66
2022/01/19 11:24:02;;;;;;;;;;;;;;;-144.99;96.26;52672.31;5020300;28;19961;-65
2022/01/19 11:26:30;;;;;;;;;;;;;;;-144.99;95.33;52649.88;5017419;28;19956;-66
2022/01/19 11:29:12;;;;;;;;;;;;;;;-144.99;94.03;52676.38;5012132;28;19963;-65
2022/01/19 11:31:40;;;;;;;;;;;;;;;-144.99;94.80;52692.69;5008977;28;19945;-65
2022/01/19 11:34:06;;;;;;;;;;;;;;;-144.99;96.19;52680.47;5008783;28;19952;-66
2022/01/19 11:36:34;;;;;;;;;;;;;;;-144.99;96.40;52680.47;5010804;28;19959;-65
2022/01/19 11:39:05;;;;;;;;;;;;;;;-144.99;96.61;52664.16;5019281;28;20054;-65
2022/01/19 11:41:36;;;;;;;;;;;;;;;-144.99;96.87;52700.84;5012202;28;19963;-65
2022/01/19 11:44:05;;;;;;;;;;;;;;;-144.99;96.71;52641.72;5008856;28;20089;-64
2022/01/19 11:46:33;;;;;;;;;;;;;;;-144.99;95.26;52690.66;5008282;28;19945;-64
2022/01/19 11:49:00;;;;;;;;;;;;;;;-144.99;95.26;52668.22;5016904;28;19936;-64
2022/01/19 11:51:28;;;;;;;;;;;;;;;-144.99;95.00;52668.22;5013231;28;19946;-65
2022/01/19 11:54:02;;;;;;;;;;;;;;;-144.99;95.25;52698.81;5007388;28;20213;-66
2022/01/19 11:56:29;;;;;;;;;;;;;;;-144.99;96.75;52678.44;5003989;28;20735;-64
2022/01/19 11:59:03;;;;;;;;;;;;;;;-144.99;96.44;52670.28;5016752;28;19947;-64
2022/01/19 12:01:30;;;;;;;;;;;;;;;-144.99;97.34;52680.47;5011370;28;20424;-64
2022/01/19 12:04:12;;;;;;;;;;;;;;;-144.99;97.85;52668.22;5020381;28;19929;-65
2022/01/19 12:06:38;;;;;;;;;;;;;;;-144.99;97.87;52700.84;5016331;28;19959;-65
2022/01/19 12:09:06;;;;;;;;;;;;;;;-144.99;98.43;52704.94;5005403;28;19959;-64
2022/01/19 12:11:36;;;;;;;;;;;;;;;-144.99;98.10;52688.63;5011620;28;19937;-65
2022/01/19 12:14:11;;;;;;;;;;;;;;;-144.99;98.07;52688.63;5008766;28;19972;-64
2022/01/19 12:16:54;;;;;;;;;;;;;;;-144.99;97.59;52656.00;5008362;28;19980;-66
2022/01/19 12:19:23;;;;;;;;;;;;;;;-144.99;97.93;52700.84;5027093;28;20279;-66
2022/01/19 12:21:55;;;;;;;;;;;;;;;-144.99;98.13;52664.16;5021452;28;19943;-67
2022/01/19 12:24:24;;;;;;;;;;;;;;;-144.99;97.76;52688.63;5020521;28;19933;-66
2022/01/19 12:26:53;;;;;;;;;;;;;;;-144.99;98.23;52656.00;5021085;28;19960;-67
2022/01/19 12:29:34;;;;;;;;;;;;;;;-144.99;97.60;52715.13;5008280;28;19940;-65
2022/01/19 12:32:02;;;;;;;;;;;;;;;-144.99;97.58;52706.97;5004832;28;19926;-65
2022/01/19 12:34:39;;;;;;;;;;;;;;;-144.99;97.77;52676.38;4997624;28;19936;-65
2022/01/19 12:37:06;;;;;;;;;;;;;;;-144.99;98.36;52676.38;5020870;28;20301;-65
2022/01/19 12:39:37;;;;;;;;;;;;;;;-144.99;98.53;52688.63;5009218;28;19938;-65
2022/01/19 12:42:04;;;;;;;;;;;;;;;-144.99;98.25;52696.78;5007828;28;20538;-66
2022/01/19 12:44:41;;;;;;;;;;;;;;;-144.99;99.01;52696.78;5017161;28;20046;-67
2022/01/19 12:47:23;;;;;;;;;;;;;;;-144.99;99.12;52692.69;5019544;28;19943;-65
2022/01/19 12:49:51;;;;;;;;;;;;;;;-144.99;99.38;52717.16;5014954;28;19926;-65
2022/01/19 12:52:18;;;;;;;;;;;;;;;-144.99;100.00;52704.94;5014071;28;19964;-67
2022/01/19 12:54:44;;;;;;;;;;;;;;;-144.99;100.00;52688.63;5011354;28;19963;-67
2022/01/19 12:57:15;;;;;;;;;;;;;;;-144.99;99.88;52686.59;5009026;28;19929;-67
2022/01/19 12:59:42;;;;;;;;;;;;;;;-144.99;100.00;52696.78;5018501;28;19964;-66
2022/01/19 13:02:09;;;;;;;;;;;;;;;-144.99;100.00;52651.94;5007346;28;20017;-66
2022/01/19 13:04:38;;;;;;;;;;;;;;;-144.99;100.00;52713.09;5005377;28;20247;-65
2022/01/19 13:07:18;;;;;;;;;;;;;;;-144.99;100.00;52658.03;5025806;28;19951;-65
2022/01/19 13:10:05;;;;;;;;;;;;;;;-144.99;100.00;52688.63;5007741;28;19936;-66
2022/01/19 13:12:37;;;;;;;;;;;;;;;-144.99;100.00;52688.63;5026760;28;19936;-66
2022/01/19 13:15:04;;;;;;;;;;;;;;;-144.99;100.00;52700.84;5011451;28;19959;-65
2022/01/19 13:17:40;;;;;;;;;;;;;;;-144.99;100.00;52704.94;5007122;28;19929;-65
2022/01/19 13:20:10;;;;;;;;;;;;;;;-144.99;100.00;52729.38;5008739;28;20369;-66
2022/01/19 13:22:46;;;;;;;;;;;;;;;-144.99;100.00;52684.53;5016825;28;19932;-66
2022/01/19 13:25:16;;;;;;;;;;;;;;;-144.99;100.00;52721.22;5007605;28;19939;-65
2022/01/19 13:27:43;;;;;;;;;;;;;;;-144.99;100.00;52709.00;5017841;28;19936;-66
2022/01/19 13:30:11;;;;;;;;;;;;;;;-144.99;100.00;52696.78;5006885;28;19965;-66
2022/01/19 13:32:39;;;;;;;;;;;;;;;-144.99;100.00;52688.63;5006965;28;19925;-65
2022/01/19 13:35:07;;;;;;;;;;;;;;;-144.99;100.00;52721.22;5006359;28;20032;-66
2022/01/19 13:37:35;;;;;;;;;;;;;;;-144.99;100.00;52672.31;5006755;28;20294;-64